createdAt,value
2022-11-10T00:04:11.228Z,99010.53
2022-11-10T00:08:31.914Z,99002.78
2022-11-10T00:12:52.509Z,99008.41
2022-11-10T00:17:13.322Z,99005.50
2022-11-10T00:21:33.547Z,99001.50
2022-11-10T00:25:54.685Z,99003.94
2022-11-10T00:30:15.270Z,98987.09
2022-11-10T00:34:36.400Z,98984.41
2022-11-10T00:38:56.958Z,98975.88
2022-11-10T00:43:18.645Z,98967.31
2022-11-10T00:47:41.972Z,98982.81
2022-11-10T00:52:02.868Z,98965.72
2022-11-10T00:56:24.432Z,98969.97
2022-11-10T01:00:45.285Z,98975.31
2022-11-10T01:05:06.141Z,98980.38
2022-11-10T01:09:26.632Z,98982.19
2022-11-10T01:13:52.604Z,98989.34
2022-11-10T01:18:14.074Z,98989.63
2022-11-10T01:22:35.376Z,99006.13
2022-11-10T01:26:56.433Z,99003.75
2022-11-10T01:31:19.776Z,99009.38
2022-11-10T01:35:40.279Z,99016.31
2022-11-10T01:40:01.052Z,99019.03
2022-11-10T01:44:24.169Z,99014.78
2022-11-10T01:48:47.925Z,99006.25
2022-11-10T01:53:13.702Z,98997.72
2022-11-10T01:57:35.137Z,98999.06
2022-11-10T02:02:02.055Z,98991.84
2022-11-10T02:06:26.761Z,98987.88
2022-11-10T02:10:47.192Z,98986.81
2022-11-10T02:15:12.871Z,98984.41
2022-11-10T02:19:40.677Z,98984.69
2022-11-10T02:24:00.862Z,98988.94
2022-11-10T02:28:21.644Z,98991.34
2022-11-10T02:32:41.980Z,98989.66
2022-11-10T02:37:02.975Z,98990.78
2022-11-10T02:41:23.672Z,98988.13
2022-11-10T02:45:44.470Z,98992.69
2022-11-10T02:50:05.266Z,98989.22
2022-11-10T02:54:25.593Z,98996.69
2022-11-10T02:58:46.168Z,98995.84
2022-11-10T03:03:07.050Z,98993.44
2022-11-10T03:07:27.468Z,98996.13
2022-11-10T03:11:48.169Z,99006.53
2022-11-10T03:16:08.750Z,99007.59
2022-11-10T03:20:29.273Z,99012.09
2022-11-10T03:24:49.861Z,99029.44
2022-11-10T03:29:10.220Z,99025.97
2022-11-10T03:33:30.650Z,99024.63
2022-11-10T03:37:51.494Z,99044.59
2022-11-10T03:42:12.200Z,99034.47
2022-11-10T03:46:32.882Z,99025.06
2022-11-10T03:50:53.422Z,99032.16
2022-11-10T03:55:18.014Z,99037.50
2022-11-10T03:59:38.405Z,99043.69
2022-11-10T04:03:59.036Z,99046.81
2022-11-10T04:08:38.250Z,99057.28
2022-11-10T04:13:17.168Z,99071.72
2022-11-10T04:17:37.805Z,99073.28
2022-11-10T04:21:58.544Z,99064.22
2022-11-10T04:26:32.837Z,99076.19
2022-11-10T04:30:53.114Z,99073.88
2022-11-10T04:35:13.488Z,99085.16
2022-11-10T04:39:34.102Z,99092.66
2022-11-10T04:43:55.119Z,99093.97
2022-11-10T04:48:15.337Z,99084.91
2022-11-10T04:52:35.950Z,99086.00
2022-11-10T04:56:56.878Z,99076.94
2022-11-10T05:01:20.243Z,99072.91
2022-11-10T05:05:41.038Z,99072.16
2022-11-10T05:10:01.340Z,99077.81
2022-11-10T05:14:21.856Z,99074.56
2022-11-10T05:18:42.713Z,99078.47
2022-11-10T05:23:21.860Z,99075.97
2022-11-10T05:27:42.905Z,99065.81
2022-11-10T05:32:03.670Z,99050.94
2022-11-10T05:36:24.130Z,99020.00
2022-11-10T05:40:44.900Z,98997.53
2022-11-10T05:45:06.345Z,98976.69
2022-11-10T05:49:27.512Z,98973.22
2022-11-10T05:53:47.872Z,98998.53
2022-11-10T05:58:09.158Z,99041.03
2022-11-10T06:02:29.639Z,99070.28
2022-11-10T06:06:50.304Z,99092.66
2022-11-10T06:11:11.083Z,99105.53
2022-11-10T06:15:50.517Z,99096.63
2022-11-10T06:20:12.856Z,99100.63
2022-11-10T06:24:33.679Z,99097.13
2022-11-10T06:28:54.558Z,99110.75
2022-11-10T06:33:15.282Z,99111.06
2022-11-10T06:37:35.947Z,99107.22
2022-11-10T06:41:56.655Z,99097.91
2022-11-10T06:46:17.222Z,99125.16
2022-11-10T06:50:38.148Z,99137.69
2022-11-10T06:54:59.167Z,99155.31
2022-11-10T06:59:19.821Z,99161.22
2022-11-10T07:03:58.509Z,99171.50
2022-11-10T07:08:21.679Z,99165.75
2022-11-10T07:12:42.166Z,99168.78
2022-11-10T07:17:02.862Z,99188.91
2022-11-10T07:21:23.385Z,99186.84
2022-11-10T07:25:44.114Z,99194.09
2022-11-10T07:30:06.488Z,99201.66
2022-11-10T07:34:27.116Z,99200.13
2022-11-10T07:38:47.992Z,99189.50
2022-11-10T07:43:08.364Z,99188.44
2022-11-10T07:47:28.918Z,99201.53
2022-11-10T07:51:49.447Z,99195.88
2022-11-10T07:56:10.368Z,99201.94
2022-11-10T08:00:31.225Z,99187.34
2022-11-10T08:04:54.083Z,99189.28
2022-11-10T08:09:14.558Z,99192.47
2022-11-10T08:13:35.238Z,99208.78
2022-11-10T08:18:14.187Z,99210.28
2022-11-10T08:22:34.632Z,99205.47
2022-11-10T08:26:56.311Z,99214.19
2022-11-10T08:31:16.967Z,99225.03
2022-11-10T08:35:40.814Z,99237.25
2022-11-10T08:40:01.027Z,99232.31
2022-11-10T08:44:21.722Z,99218.78
2022-11-10T08:48:42.536Z,99212.03
2022-11-10T08:53:10.799Z,99226.88
2022-11-10T08:57:31.160Z,99229.75
2022-11-10T09:01:51.999Z,99236.88
2022-11-10T09:06:13.210Z,99232.09
2022-11-10T09:10:36.267Z,99240.19
2022-11-10T09:14:57.091Z,99243.41
2022-11-10T09:19:20.062Z,99249.53
2022-11-10T09:23:40.869Z,99250.22
2022-11-10T09:28:02.257Z,99248.75
2022-11-10T09:32:22.899Z,99252.22
2022-11-10T09:36:43.664Z,99246.44
2022-11-10T09:41:08.878Z,99249.34
2022-11-10T09:45:39.399Z,99256.81
2022-11-10T09:50:02.966Z,99273.53
2022-11-10T09:54:41.524Z,99281.44
2022-11-10T09:59:06.855Z,99281.34
2022-11-10T10:03:31.837Z,99293.44
2022-11-10T10:08:02.506Z,99287.59
2022-11-10T10:12:55.081Z,99303.63
2022-11-10T10:17:26.753Z,99299.94
2022-11-10T10:21:47.606Z,99300.72
2022-11-10T10:26:15.932Z,99294.81
2022-11-10T10:30:36.660Z,99307.13
2022-11-10T10:34:57.817Z,99311.09
2022-11-10T10:39:44.097Z,99314.38
2022-11-10T10:44:17.115Z,99305.25
2022-11-10T10:48:38.048Z,99308.69
2022-11-10T10:53:20.123Z,99311.78
2022-11-10T10:57:51.347Z,99310.19
2022-11-10T11:02:26.305Z,99316.47
2022-11-10T11:06:59.752Z,99315.06
2022-11-10T11:11:25.880Z,99321.06
2022-11-10T11:16:07.839Z,99323.56
2022-11-10T11:20:55.462Z,99324.59
2022-11-10T11:25:34.274Z,99310.31
2022-11-10T11:30:16.648Z,99311.50
2022-11-10T11:34:56.136Z,99320.94
2022-11-10T11:39:47.159Z,99326.84
2022-11-10T11:44:38.297Z,99325.69
2022-11-10T11:49:32.156Z,99337.44
2022-11-10T11:54:13.688Z,99341.75
2022-11-10T11:58:39.891Z,99335.69
2022-11-10T12:03:09.376Z,99340.41
2022-11-10T12:07:54.667Z,99339.16
2022-11-10T12:12:45.301Z,99336.56
2022-11-10T12:17:05.652Z,99341.00
2022-11-10T12:21:50.486Z,99332.84
2022-11-10T12:26:15.342Z,99337.56
2022-11-10T12:30:37.341Z,99329.28
2022-11-10T12:35:00.503Z,99319.00
2022-11-10T12:39:37.939Z,99323.91
2022-11-10T12:44:26.607Z,99334.13
2022-11-10T12:48:46.928Z,99336.72
2022-11-10T12:53:16.958Z,99348.03
2022-11-10T12:57:37.510Z,99343.69
2022-11-10T13:02:04.928Z,99347.09
2022-11-10T13:06:50.654Z,99341.28
2022-11-10T13:11:11.706Z,99345.44
2022-11-10T13:15:45.738Z,99353.94
2022-11-10T13:20:38.783Z,99347.75
2022-11-10T13:25:37.661Z,99353.00
2022-11-10T13:30:00.471Z,99352.69
2022-11-10T13:34:33.923Z,99356.66
2022-11-10T13:38:55.796Z,99365.63
2022-11-10T13:43:19.544Z,99365.47
2022-11-10T13:47:50.466Z,99372.19
2022-11-10T13:52:17.136Z,99378.56
2022-11-10T13:57:11.730Z,99376.88
2022-11-10T14:01:32.311Z,99379.06
2022-11-10T14:06:17.704Z,99388.06
2022-11-10T14:10:40.426Z,99385.63
2022-11-10T14:15:15.173Z,99394.25
2022-11-10T14:19:42.868Z,99394.38
2022-11-10T14:24:11.476Z,99398.97
2022-11-10T14:28:35.496Z,99408.38
2022-11-10T14:33:04.993Z,99407.00
2022-11-10T14:37:28.389Z,99412.56
2022-11-10T14:41:51.146Z,99410.78
2022-11-10T14:46:14.345Z,99411.19
2022-11-10T14:50:35.839Z,99428.09
2022-11-10T14:54:56.919Z,99430.03
2022-11-10T14:59:19.147Z,99442.38
2022-11-10T15:03:42.463Z,99450.47
2022-11-10T15:08:04.690Z,99451.31
2022-11-10T15:12:27.973Z,99447.22
2022-11-10T15:17:10.161Z,99443.09
2022-11-10T15:21:34.385Z,99445.75
2022-11-10T15:25:55.459Z,99444.59
2022-11-10T15:30:23.560Z,99458.47
2022-11-10T15:34:45.821Z,99449.47
2022-11-10T15:39:12.548Z,99456.06
2022-11-10T15:43:33.258Z,99461.88
2022-11-10T15:47:53.921Z,99472.00
2022-11-10T15:52:17.474Z,99475.03
2022-11-10T15:56:37.821Z,99479.97
2022-11-10T16:01:00.367Z,99475.41
2022-11-10T16:05:20.571Z,99484.91
2022-11-10T16:09:41.192Z,99485.78
2022-11-10T16:14:05.703Z,99497.66
2022-11-10T16:18:29.429Z,99497.41
2022-11-10T16:22:49.731Z,99501.69
2022-11-10T16:27:14.784Z,99509.16
2022-11-10T16:31:35.272Z,99519.03
2022-11-10T16:35:56.627Z,99520.31
2022-11-10T16:40:20.092Z,99523.84
2022-11-10T16:44:42.780Z,99530.88
2022-11-10T16:49:05.251Z,99541.63
2022-11-10T16:53:31.318Z,99548.09
2022-11-10T16:57:51.757Z,99556.44
2022-11-10T17:02:35.788Z,99566.13
2022-11-10T17:06:56.368Z,99573.94
2022-11-10T17:11:17.416Z,99583.06
2022-11-10T17:15:38.246Z,99592.97
2022-11-10T17:19:59.208Z,99588.41
2022-11-10T17:24:20.359Z,99589.47
2022-11-10T17:28:40.609Z,99606.03
2022-11-10T17:33:05.521Z,99603.28
2022-11-10T17:37:26.195Z,99602.44
2022-11-10T17:41:46.982Z,99610.72
2022-11-10T17:46:07.699Z,99620.41
2022-11-10T17:50:28.289Z,99622.50
2022-11-10T17:54:50.221Z,99639.13
2022-11-10T17:59:10.784Z,99635.28
2022-11-10T18:03:31.435Z,99634.22
2022-11-10T18:07:53.028Z,99644.13
2022-11-10T18:12:13.456Z,99654.38
2022-11-10T18:16:34.014Z,99648.69
2022-11-10T18:20:57.321Z,99659.75
2022-11-10T18:25:18.134Z,99668.66
2022-11-10T18:29:38.601Z,99667.63
2022-11-10T18:33:59.188Z,99671.44
2022-11-10T18:38:20.119Z,99677.06
2022-11-10T18:42:41.418Z,99680.03
2022-11-10T18:47:02.506Z,99689.72
2022-11-10T18:51:23.144Z,99697.78
2022-11-10T18:55:53.553Z,99710.41
2022-11-10T19:00:14.563Z,99712.28
2022-11-10T19:04:35.331Z,99720.94
2022-11-10T19:08:56.715Z,99727.91
2022-11-10T19:13:17.689Z,99729.00
2022-11-10T19:17:38.181Z,99738.91
2022-11-10T19:21:58.877Z,99744.00
2022-11-10T19:26:48.455Z,99749.38
2022-11-10T19:31:16.241Z,99751.78
2022-11-10T19:35:41.649Z,99757.13
2022-11-10T19:40:02.653Z,99761.19
2022-11-10T19:44:23.528Z,99757.16
2022-11-10T19:48:44.526Z,99760.59
2022-11-10T19:53:05.149Z,99754.94
2022-11-10T19:57:26.520Z,99760.50
2022-11-10T20:01:47.115Z,99768.94
2022-11-10T20:06:11.005Z,99769.91
2022-11-10T20:10:32.250Z,99778.88
2022-11-10T20:14:52.965Z,99782.47
2022-11-10T20:19:14.440Z,99792.38
2022-11-10T20:23:35.126Z,99793.59
2022-11-10T20:27:56.272Z,99795.03
2022-11-10T20:32:16.978Z,99800.75
2022-11-10T20:36:37.567Z,99804.16
2022-11-10T20:41:03.278Z,99805.75
2022-11-10T20:45:23.659Z,99798.16
2022-11-10T20:49:44.415Z,99804.13
2022-11-10T20:54:04.869Z,99817.88
2022-11-10T20:58:26.054Z,99819.25
2022-11-10T21:02:46.818Z,99823.25
2022-11-10T21:07:07.496Z,99825.47
2022-11-10T21:11:47.277Z,99842.59
2022-11-10T21:16:08.444Z,99856.25
2022-11-10T21:20:28.826Z,99867.16
2022-11-10T21:24:50.607Z,99871.28
2022-11-10T21:29:12.026Z,99878.28
2022-11-10T21:33:33.179Z,99874.94
2022-11-10T21:37:54.078Z,99875.25
2022-11-10T21:42:14.378Z,99873.78
2022-11-10T21:46:35.856Z,99876.25
2022-11-10T21:51:00.904Z,99880.19
2022-11-10T21:55:21.211Z,99883.63
2022-11-10T21:59:41.896Z,99885.16
2022-11-10T22:04:02.732Z,99882.25
2022-11-10T22:08:23.442Z,99886.47
2022-11-10T22:13:02.536Z,99890.50
2022-11-10T22:17:41.811Z,99884.97
2022-11-10T22:22:04.340Z,99881.16
2022-11-10T22:26:25.785Z,99890.94
2022-11-10T22:30:46.561Z,99891.66
2022-11-10T22:35:07.847Z,99892.44
2022-11-10T22:39:48.452Z,99888.03
2022-11-10T22:44:11.312Z,99892.44
2022-11-10T22:48:32.722Z,99897.00
2022-11-10T22:52:54.025Z,99892.84
2022-11-10T22:57:14.622Z,99884.97
2022-11-10T23:01:37.383Z,99886.72
2022-11-10T23:05:58.028Z,99885.56
2022-11-10T23:10:18.610Z,99880.59
2022-11-10T23:14:39.422Z,99869.19
2022-11-10T23:19:00.534Z,99878.91
2022-11-10T23:23:21.380Z,99885.53
2022-11-10T23:27:42.269Z,99888.31
2022-11-10T23:32:03.329Z,99896.88
2022-11-10T23:36:25.999Z,99886.59
2022-11-10T23:40:46.485Z,99885.88
2022-11-10T23:45:07.596Z,99898.06
2022-11-10T23:49:28.046Z,99894.69
2022-11-10T23:53:48.775Z,99897.44
2022-11-10T23:58:09.416Z,99897.56
